Airfield :
LOGIN :

Register | Disclaimer

   EN    FR    IT 

 










Legend :    VFR   Marginal VFR   IFR   Intensive IFR   Very Intensive IFR
Visi :
Ceiling :
>= 8 km
>= 3000ft
5 to 8 km
1000 to 3000 ft
1500m to 5 km
500 to 1000 ft
800 to 1500m
200 to 500 ft
< 800m
< 200 ft
Symbols :   Thunderstorms  Fog  Heavy snow  Heavy precipitations  Wind > 20 kt
SIGMETs :     Misc.  Thunderstorms  Icing  Turbulence  Mountain Waves  Volcanic Ashes






- Airport Elevation : 126 ft
- IATA code : WIC


EGPC - Wick

CURRENT METAR :
  • 200820Z 32007KT 9999 BKN039 02/M02 Q1034

EXPIRED METARs :
  • 200750Z 32007KT 9999 SCT047 02/M03 Q1034
  • 200720Z AUTO 32011KT 9999 NCD 03/M02 Q1034
  • 200650Z AUTO 33013KT 9999 BKN043/// 03/M03 Q1033
  • 200620Z AUTO 31013KT 9999 BKN043/// 03/M04 Q1033
  • 200550Z AUTO 31015KT 9999 BKN040/// OVC046/// 03/M03 Q1033

TAF TAF EGPC
Valid from the 20 at 09:00 until the 20 at 18:00 UTC


200802Z 2009/2018 29009KT 9999 FEW040
ATIS : +44 1955 607 596



MET'MAP, your aeronautical weather chart ! - Copyright ORBIFLY December 2007 - Disclaimer

ORBIFLY MET'MAP TEAM :

Programming & Development : Alexandra Zaïnal
Concept & original design : Baudouin d'Aumeries
Assistance for programming : Marc-Olivier Méhu
Technical & hardware support : Manuel Goepfert

Contact : metmap@orbifly.com




SOURCES & CREDITS :

   NOAA